^^
Station Historical Data
Daily Summary for January 5, 2018 Units:  English    Metric   Both
« Previous Day
Next Day »
Daily Weekly Monthly Yearly Custom
  High: Low: Average:
Temperature: TemperatureF °F 73.2 °F 80.9 °F
Dew Point: DewpointF °F 35.1 °F 39.6 °F
Humidity: Humidity% 18% 23%
Wind Speed: WindSpeedMPHmph -999.9mph -26.7mph
Wind Gust: WindSpeedGustMPHmph - -
Wind- -
Pressure: PressureIn in 30.11 in -
Precipitation: 0.00 in    
Historical Graphs
 
 
Tabular Data for January 5, 2018
Time Temperature Dew Point Pressure Wind Wind Speed Wind Gust Humidity Rainfall Rate (Hourly) solar Conditions
TemperatureF °F DewpointF °F PressureIn in Calm     Humidity% HourlyPrecipIn in SoftwareType W/m2 Conditions
09:00 73.2 °F 43.2 °F 30.29 in North -999.9 mph -999.0 mph 34% 0.00 in meteobridge W/m2
09:06 73.6 °F 43.5 °F 30.29 in East 2.9 mph 14.0 mph 34% 0.00 in meteobridge W/m2
09:12 73.8 °F 42.8 °F 30.29 in NE 6.9 mph 14.0 mph 33% 0.00 in meteobridge W/m2
09:18 73.9 °F 42.3 °F 30.29 in NNE 13.0 mph 13.0 mph 32% 0.00 in meteobridge W/m2
09:22 73.9 °F 42.3 °F 30.29 in NNE 13.0 mph 17.0 mph 32% 0.00 in meteobridge W/m2
09:28 73.8 °F 42.8 °F 30.28 in NE 8.9 mph 11.0 mph 33% 0.00 in meteobridge W/m2
09:34 74.7 °F 42.8 °F 30.29 in NNE 6.9 mph 12.0 mph 32% 0.00 in meteobridge W/m2
09:40 75.4 °F 43.5 °F 30.29 in North 4.9 mph 9.0 mph 32% 0.00 in meteobridge W/m2
09:47 75.7 °F 43.0 °F 30.29 in NE 8.9 mph 10.0 mph 31% 0.00 in meteobridge W/m2
09:53 76.5 °F 43.5 °F 30.29 in NNE 4.0 mph 10.0 mph 31% 0.00 in meteobridge W/m2
09:59 76.8 °F 43.9 °F 30.29 in SSE 4.9 mph 13.0 mph 31% 0.00 in meteobridge W/m2
10:01 76.6 °F 42.8 °F 30.29 in SSW 0.9 mph 9.0 mph 30% 0.00 in meteobridge W/m2
10:09 77.2 °F 43.3 °F 30.29 in ENE 4.9 mph 10.0 mph 30% 0.00 in meteobridge W/m2
10:17 76.8 °F 43.0 °F 30.28 in NNE 11.0 mph 11.0 mph 30% 0.00 in meteobridge W/m2
10:23 77.0 °F 42.3 °F 30.29 in NE 6.9 mph 15.0 mph 29% 0.00 in meteobridge W/m2
10:29 77.0 °F 43.2 °F 30.28 in SE 0.9 mph 7.0 mph 30% 0.00 in meteobridge W/m2
10:36 77.7 °F 43.0 °F 30.28 in NE 6.9 mph 8.0 mph 29% 0.00 in meteobridge W/m2
10:44 79.2 °F 44.2 °F 30.28 in ESE 4.9 mph 14.0 mph 29% 0.00 in meteobridge W/m2
10:52 80.1 °F 44.1 °F 30.28 in East 6.0 mph 6.0 mph 28% 0.00 in meteobridge W/m2
10:58 80.6 °F 43.5 °F 30.27 in ENE 2.9 mph 11.0 mph 27% 0.00 in meteobridge W/m2
11:04 80.2 °F 43.2 °F 30.27 in NNE 12.1 mph 17.0 mph 27% 0.00 in meteobridge W/m2
11:08 78.8 °F 42.1 °F 30.27 in NNE 6.0 mph 20.0 mph 27% 0.00 in meteobridge W/m2
11:10 78.6 °F 41.9 °F 30.27 in ENE 0.9 mph 7.0 mph 27% 0.00 in meteobridge W/m2
11:16 79.0 °F 42.1 °F 30.27 in NNE 10.1 mph 10.1 mph 27% 0.00 in meteobridge W/m2
11:22 79.9 °F 41.9 °F 30.26 in NNE 6.9 mph 12.0 mph 26% 0.00 in meteobridge W/m2
11:30 79.7 °F 40.8 °F 30.26 in NNE 2.0 mph 11.0 mph 25% 0.00 in meteobridge W/m2
11:38 80.1 °F 41.0 °F 30.27 in ESE 4.9 mph 5.0 mph 25% 0.00 in meteobridge W/m2
11:44 80.8 °F 41.7 °F 30.26 in ENE 10.1 mph 15.0 mph 25% 0.00 in meteobridge W/m2
11:50 81.5 °F 41.2 °F 30.26 in NNE 2.9 mph 11.0 mph 24% 0.00 in meteobridge W/m2
11:52 81.7 °F 41.4 °F 30.25 in NE 2.0 mph 4.0 mph 24% 0.00 in meteobridge W/m2
11:58 81.9 °F 40.5 °F 30.26 in NNE 11.0 mph 18.0 mph 23% 0.00 in meteobridge W/m2
12:05 81.1 °F 41.0 °F 30.25 in North 10.1 mph 11.0 mph 24% 0.00 in meteobridge W/m2
12:11 81.7 °F 41.4 °F 30.25 in SSE 4.9 mph 6.0 mph 24% 0.00 in meteobridge W/m2
12:17 82.8 °F 42.3 °F 30.25 in SE 2.9 mph 5.0 mph 24% 0.00 in meteobridge W/m2
12:23 82.9 °F 40.1 °F 30.24 in NNE 15.0 mph 15.0 mph 22% 0.00 in meteobridge W/m2
12:29 82.0 °F 39.4 °F 30.24 in NNW 4.0 mph 18.0 mph 22% 0.00 in meteobridge W/m2
12:37 82.2 °F 40.8 °F 30.24 in North 4.9 mph 9.0 mph 23% 0.00 in meteobridge W/m2
12:41 83.1 °F 40.3 °F 30.24 in NNE 6.9 mph 20.0 mph 22% 0.00 in meteobridge W/m2
12:51 83.1 °F 40.3 °F 30.23 in NE 2.0 mph 12.0 mph 22% 0.00 in meteobridge W/m2
12:57 83.3 °F 40.5 °F 30.23 in North 13.0 mph 13.0 mph 22% 0.00 in meteobridge W/m2
13:03 83.3 °F 40.5 °F 30.23 in North 16.1 mph 17.0 mph 22% 0.00 in meteobridge W/m2
13:12 84.0 °F 41.0 °F 30.23 in NE 8.1 mph 15.0 mph 22% 0.00 in meteobridge W/m2
13:32 83.1 °F 40.3 °F 30.22 in NNE 11.0 mph 16.0 mph 22% 0.00 in meteobridge W/m2
13:38 84.0 °F 39.9 °F 30.22 in NW 14.1 mph 18.0 mph 21% 0.00 in meteobridge W/m2
13:46 84.6 °F 40.3 °F 30.22 in North 10.1 mph 19.0 mph 21% 0.00 in meteobridge W/m2
13:54 84.0 °F 39.9 °F 30.21 in North 12.1 mph 18.0 mph 21% 0.00 in meteobridge W/m2
14:00 83.8 °F 39.7 °F 30.20 in North 15.0 mph 17.0 mph 21% 0.00 in meteobridge W/m2
14:06 84.6 °F 40.3 °F 30.21 in North 4.0 mph 14.0 mph 21% 0.00 in meteobridge W/m2
14:15 83.1 °F 39.2 °F 30.20 in NNW 8.9 mph 17.0 mph 21% 0.00 in meteobridge W/m2
14:25 84.7 °F 39.2 °F 30.20 in North 12.1 mph 18.0 mph 20% 0.00 in meteobridge W/m2
14:33 84.4 °F 39.0 °F 30.19 in NNW 2.9 mph 10.0 mph 20% 0.00 in meteobridge W/m2
14:47 84.2 °F 38.8 °F 30.19 in North 8.9 mph 22.0 mph 20% 0.00 in meteobridge W/m2
14:53 83.5 °F 39.4 °F 30.19 in NNE 10.1 mph 13.0 mph 21% 0.00 in meteobridge W/m2
15:00 84.4 °F 39.0 °F 30.18 in North 8.1 mph 8.1 mph 20% 0.00 in meteobridge W/m2
15:06 84.7 °F 39.2 °F 30.18 in North 12.1 mph 17.0 mph 20% 0.00 in meteobridge W/m2
15:12 84.4 °F 39.0 °F 30.18 in North 11.0 mph 15.0 mph 20% 0.00 in meteobridge W/m2
15:20 84.7 °F 39.2 °F 30.17 in NE 4.0 mph 16.0 mph 20% 0.00 in meteobridge W/m2
15:26 84.9 °F 39.4 °F 30.16 in NW 6.0 mph 10.0 mph 20% 0.00 in meteobridge W/m2
15:32 84.4 °F 39.0 °F 30.16 in NNE 6.9 mph 15.0 mph 20% 0.00 in meteobridge W/m2
15:38 82.9 °F 39.0 °F 30.16 in North 6.9 mph 16.0 mph 21% 0.00 in meteobridge W/m2
15:44 84.0 °F 39.9 °F 30.16 in NNE 11.0 mph 13.0 mph 21% 0.00 in meteobridge W/m2
15:50 84.2 °F 38.8 °F 30.16 in North 11.0 mph 11.0 mph 20% 0.00 in meteobridge W/m2
16:01 84.2 °F 38.8 °F 30.16 in North 4.9 mph 11.0 mph 20% 0.00 in meteobridge W/m2
16:07 84.9 °F 39.4 °F 30.16 in NNE 4.0 mph 17.0 mph 20% 0.00 in meteobridge W/m2
16:15 86.9 °F 41.0 °F 30.15 in SE 2.9 mph 5.0 mph 20% 0.00 in meteobridge W/m2
16:21 86.5 °F 39.4 °F 30.15 in North 16.1 mph 20.0 mph 19% 0.00 in meteobridge W/m2
16:27 84.7 °F 39.2 °F 30.15 in North 2.9 mph 8.0 mph 20% 0.00 in meteobridge W/m2
16:35 85.8 °F 38.8 °F 30.14 in North 2.0 mph 7.0 mph 19% 0.00 in meteobridge W/m2
16:58 86.5 °F 37.9 °F 30.13 in North 11.0 mph 13.0 mph 18% 0.00 in meteobridge W/m2
17:04 86.2 °F 39.0 °F 30.13 in NNW 12.1 mph 13.0 mph 19% 0.00 in meteobridge W/m2
17:10 85.8 °F 38.8 °F 30.13 in NNW 13.0 mph 15.0 mph 19% 0.00 in meteobridge W/m2
17:16 85.5 °F 37.0 °F 30.12 in North 2.9 mph 5.0 mph 18% 0.00 in meteobridge W/m2
17:26 85.5 °F 37.0 °F 30.12 in North 6.9 mph 16.0 mph 18% 0.00 in meteobridge W/m2
17:37 84.7 °F 37.9 °F 30.13 in NNE 6.0 mph 13.0 mph 19% 0.00 in meteobridge W/m2
17:43 85.1 °F 36.9 °F 30.13 in North 11.0 mph 15.0 mph 18% 0.00 in meteobridge W/m2
17:47 84.7 °F 36.5 °F 30.12 in NNE 0.9 mph 6.0 mph 18% 0.00 in meteobridge W/m2
17:53 85.6 °F 37.2 °F 30.12 in SE 2.9 mph 6.0 mph 18% 0.00 in meteobridge W/m2
17:59 86.5 °F 37.9 °F 30.12 in North 10.1 mph 13.0 mph 18% 0.00 in meteobridge W/m2
18:15 84.9 °F 36.7 °F 30.11 in North 10.1 mph 11.0 mph 18% 0.00 in meteobridge W/m2
18:21 85.1 °F 36.9 °F 30.11 in North 4.9 mph 10.0 mph 18% 0.00 in meteobridge W/m2
18:27 84.4 °F 36.3 °F 30.11 in North 8.9 mph 15.0 mph 18% 0.00 in meteobridge W/m2
18:34 83.7 °F 35.6 °F 30.11 in NNW 6.0 mph 13.0 mph 18% 0.00 in meteobridge W/m2
18:42 82.9 °F 35.1 °F 30.11 in North 4.9 mph 9.0 mph 18% 0.00 in meteobridge W/m2
18:48 82.6 °F 36.1 °F 30.12 in North 12.1 mph 13.0 mph 19% 0.00 in meteobridge W/m2
18:56 81.9 °F 35.6 °F 30.12 in North 2.9 mph 11.0 mph 19% 0.00 in meteobridge W/m2
19:03 81.9 °F 35.6 °F 30.11 in North 2.9 mph -999.0 mph 19% 0.00 in meteobridge W/m2
19:16 81.9 °F 35.6 °F 30.12 in North -999.9 mph -999.0 mph 19% 0.00 in meteobridge W/m2
19:24 81.9 °F 35.6 °F 30.12 in North -999.9 mph -999.0 mph 19% 0.00 in meteobridge W/m2
Regenstein, Windhoek, Namibia
Compliments of Weather Underground - 2.5 mb